Terminal Aerodrome Forecast
Issued by NWS Des Moines, IA

Home | Current Version | Previous Version | Text Only | Print | Product List | Glossary On
Versions: 1 2 3 4 5 6 7 8 9 10 11 12 13 14 15
000
FTUS43 KDMX 210520
TAFDSM
TAF
KDSM 210520Z 2106/2206 20010KT P6SM SCT050 BKN150
     FM211000 22006KT P6SM VCTS SCT030CB BKN060
     FM211200 23008KT 6SM SHRA VCTS SCT035CB OVC070
     FM211500 25010KT P6SM SCT050 BKN080
     FM211800 31014G18KT P6SM SCT050 BKN080
     FM220100 35011KT P6SM SCT100=

USA.gov is the U.S. government's official web portal to all federal, state and local government web resources and services.